createdAt,value
2017-10-30T00:00:50.814Z,970.8
2017-10-30T00:01:52.530Z,970.8
2017-10-30T00:02:54.277Z,970.8
2017-10-30T00:03:56.721Z,970.8
2017-10-30T00:04:58.434Z,970.8
2017-10-30T00:06:00.194Z,970.8
2017-10-30T00:07:01.907Z,970.9
2017-10-30T00:08:04.742Z,970.9
2017-10-30T00:09:06.400Z,971.0
2017-10-30T00:10:08.189Z,971.0
2017-10-30T00:11:09.940Z,971.0
2017-10-30T00:12:11.728Z,971.0
2017-10-30T00:13:13.472Z,971.0
2017-10-30T00:14:15.396Z,971.0
2017-10-30T00:15:17.138Z,971.0
2017-10-30T00:16:18.870Z,971.1
2017-10-30T00:17:20.560Z,971.0
2017-10-30T00:18:22.224Z,971.1
2017-10-30T00:19:23.893Z,971.1
2017-10-30T00:20:25.605Z,971.1
2017-10-30T00:21:27.564Z,971.0
2017-10-30T00:22:29.274Z,971.1
2017-10-30T00:23:30.939Z,971.1
2017-10-30T00:24:32.610Z,971.1
2017-10-30T00:25:34.351Z,971.1
2017-10-30T00:26:36.008Z,971.1
2017-10-30T00:27:37.685Z,971.1
2017-10-30T00:28:39.368Z,971.1
2017-10-30T00:29:41.327Z,971.1
2017-10-30T00:30:43.245Z,971.1
2017-10-30T00:31:44.952Z,971.0
2017-10-30T00:32:46.779Z,971.1
2017-10-30T00:33:48.484Z,971.1
2017-10-30T00:34:50.208Z,971.1
2017-10-30T00:35:51.986Z,971.1
2017-10-30T00:36:53.714Z,971.1
2017-10-30T00:37:57.310Z,971.1
2017-10-30T00:38:59.046Z,971.1
2017-10-30T00:40:00.767Z,971.1
2017-10-30T00:41:02.479Z,971.1
2017-10-30T00:42:04.208Z,971.1
2017-10-30T00:43:05.909Z,971.1
2017-10-30T00:44:07.640Z,971.1
2017-10-30T00:45:09.377Z,971.2
2017-10-30T00:46:11.091Z,971.2
2017-10-30T00:47:12.815Z,971.2
2017-10-30T00:48:14.555Z,971.2
2017-10-30T00:49:16.277Z,971.2
2017-10-30T00:50:17.994Z,971.2
2017-10-30T00:51:19.699Z,971.2
2017-10-30T00:52:21.501Z,971.2
2017-10-30T00:53:23.228Z,971.2
2017-10-30T00:54:24.930Z,971.2
2017-10-30T00:55:26.661Z,971.2
2017-10-30T00:56:28.346Z,971.2
2017-10-30T00:57:30.095Z,971.2
2017-10-30T00:58:31.785Z,971.2
2017-10-30T00:59:33.537Z,971.2
2017-10-30T01:00:35.250Z,971.2
2017-10-30T01:01:37.037Z,971.3
2017-10-30T01:02:38.802Z,971.2
2017-10-30T01:03:40.545Z,971.3
2017-10-30T01:04:42.295Z,971.2
2017-10-30T01:05:43.995Z,971.2
2017-10-30T01:06:45.732Z,971.3
2017-10-30T01:07:47.482Z,971.3
2017-10-30T01:08:49.263Z,971.3
2017-10-30T01:09:51.032Z,971.3
2017-10-30T01:10:52.795Z,971.3
2017-10-30T01:11:54.547Z,971.4
2017-10-30T01:12:56.234Z,971.4
2017-10-30T01:13:57.914Z,971.3
2017-10-30T01:14:59.599Z,971.3
2017-10-30T01:16:01.289Z,971.4
2017-10-30T01:17:02.986Z,971.4
2017-10-30T01:18:04.716Z,971.3
2017-10-30T01:19:06.428Z,971.3
2017-10-30T01:20:08.137Z,971.3
2017-10-30T01:21:09.889Z,971.3
2017-10-30T01:22:11.722Z,971.4
2017-10-30T01:23:13.468Z,971.3
2017-10-30T01:24:15.231Z,971.3
2017-10-30T01:25:17.021Z,971.3
2017-10-30T01:26:18.771Z,971.3
2017-10-30T01:27:20.554Z,971.4
2017-10-30T01:28:22.374Z,971.3
2017-10-30T01:29:24.077Z,971.3
2017-10-30T01:30:25.826Z,971.3
2017-10-30T01:31:27.580Z,971.3
2017-10-30T01:32:29.326Z,971.3
2017-10-30T01:33:31.063Z,971.3
2017-10-30T01:34:32.773Z,971.3
2017-10-30T01:35:34.515Z,971.3
2017-10-30T01:36:36.283Z,971.3
2017-10-30T01:37:38.051Z,971.3
2017-10-30T01:38:39.762Z,971.3
2017-10-30T01:39:41.464Z,971.3
2017-10-30T01:40:43.208Z,971.3
2017-10-30T01:41:44.954Z,971.3
2017-10-30T01:42:46.699Z,971.3
2017-10-30T01:43:48.392Z,971.3
2017-10-30T01:44:50.082Z,971.3
2017-10-30T01:45:51.749Z,971.3
2017-10-30T01:46:53.449Z,971.3
2017-10-30T01:47:55.095Z,971.3
2017-10-30T01:48:56.765Z,971.3
2017-10-30T01:49:58.418Z,971.3
2017-10-30T01:51:00.081Z,971.2
2017-10-30T01:52:01.747Z,971.2
2017-10-30T01:53:03.470Z,971.2
2017-10-30T01:54:05.124Z,971.3
2017-10-30T01:55:06.796Z,971.3
2017-10-30T01:56:08.450Z,971.3
2017-10-30T01:57:10.100Z,971.3
2017-10-30T01:58:11.775Z,971.2
2017-10-30T01:59:13.422Z,971.3
2017-10-30T02:00:15.078Z,971.3
2017-10-30T02:01:16.730Z,971.2
2017-10-30T02:02:18.388Z,971.3
2017-10-30T02:03:20.040Z,971.4
2017-10-30T02:04:21.721Z,971.4
2017-10-30T02:05:23.545Z,971.4
2017-10-30T02:06:25.227Z,971.3
2017-10-30T02:07:27.750Z,971.4
2017-10-30T02:08:29.408Z,971.3
2017-10-30T02:09:31.082Z,971.3
2017-10-30T02:10:32.738Z,971.3
2017-10-30T02:11:34.383Z,971.3
2017-10-30T02:12:36.046Z,971.4
2017-10-30T02:13:37.704Z,971.3
2017-10-30T02:14:39.361Z,971.3
2017-10-30T02:15:41.012Z,971.3
2017-10-30T02:16:42.670Z,971.2
2017-10-30T02:17:44.321Z,971.3
2017-10-30T02:18:45.978Z,971.3
2017-10-30T02:19:47.624Z,971.2
2017-10-30T02:20:49.278Z,971.3
2017-10-30T02:21:51.035Z,971.3
2017-10-30T02:22:52.704Z,971.3
2017-10-30T02:23:54.352Z,971.3
2017-10-30T02:24:56.000Z,971.3
2017-10-30T02:25:57.656Z,971.4
2017-10-30T02:26:59.311Z,971.3
2017-10-30T02:28:00.963Z,971.3
2017-10-30T02:29:02.673Z,971.3
2017-10-30T02:30:04.335Z,971.4
2017-10-30T02:31:05.983Z,971.3
2017-10-30T02:32:07.640Z,971.3
2017-10-30T02:33:09.297Z,971.3
2017-10-30T02:34:10.948Z,971.3
2017-10-30T02:35:12.601Z,971.4
2017-10-30T02:36:14.285Z,971.4
2017-10-30T02:37:15.939Z,971.4
2017-10-30T02:38:17.600Z,971.4
2017-10-30T02:39:19.249Z,971.5
2017-10-30T02:40:20.899Z,971.4
2017-10-30T02:41:22.569Z,971.4
2017-10-30T02:42:24.234Z,971.4
2017-10-30T02:43:25.889Z,971.5
2017-10-30T02:44:27.551Z,971.5
2017-10-30T02:45:29.203Z,971.5
2017-10-30T02:46:30.850Z,971.5
2017-10-30T02:47:32.509Z,971.6
2017-10-30T02:48:34.186Z,971.6
2017-10-30T02:49:35.845Z,971.6
2017-10-30T02:50:37.495Z,971.6
2017-10-30T02:51:39.155Z,971.6
2017-10-30T02:52:40.823Z,971.5
2017-10-30T02:53:42.564Z,971.5
2017-10-30T02:54:44.222Z,971.5
2017-10-30T02:55:45.888Z,971.5
2017-10-30T03:01:56.541Z,971.5
2017-10-30T03:02:58.197Z,971.6
2017-10-30T03:03:59.847Z,971.6
2017-10-30T03:05:01.500Z,971.6
2017-10-30T03:06:03.141Z,971.6
2017-10-30T03:07:04.802Z,971.7
2017-10-30T03:08:06.459Z,971.6
2017-10-30T03:09:08.109Z,971.6
2017-10-30T03:10:09.772Z,971.6
2017-10-30T03:11:11.426Z,971.7
2017-10-30T03:12:13.070Z,971.8
2017-10-30T03:13:14.722Z,971.8
2017-10-30T03:14:16.379Z,971.7
2017-10-30T03:15:18.045Z,971.7
2017-10-30T03:16:19.692Z,971.7
2017-10-30T03:17:21.337Z,971.7
2017-10-30T03:18:22.988Z,971.7
2017-10-30T03:19:24.648Z,971.7
2017-10-30T03:20:26.305Z,971.7
2017-10-30T03:21:27.957Z,971.7
2017-10-30T03:22:29.605Z,971.7
2017-10-30T03:23:31.270Z,971.8
2017-10-30T03:24:32.914Z,971.8
2017-10-30T03:25:34.569Z,971.7
2017-10-30T03:26:36.218Z,971.7
2017-10-30T03:27:37.869Z,971.8
2017-10-30T03:28:39.520Z,971.8
2017-10-30T03:29:41.169Z,971.7
2017-10-30T03:30:42.879Z,971.8
2017-10-30T03:31:44.535Z,971.7
2017-10-30T03:32:46.192Z,971.7
2017-10-30T03:33:47.856Z,971.8
2017-10-30T03:34:49.605Z,971.8
2017-10-30T03:35:51.270Z,971.9
2017-10-30T03:36:52.947Z,971.8
2017-10-30T03:37:54.606Z,971.9
2017-10-30T03:38:56.262Z,971.9
2017-10-30T03:39:57.927Z,971.9
2017-10-30T03:40:59.577Z,971.9
2017-10-30T03:42:01.223Z,971.9
2017-10-30T03:43:02.869Z,972.0
2017-10-30T03:44:04.523Z,972.0
2017-10-30T03:45:06.180Z,972.0
2017-10-30T03:46:07.833Z,972.0
2017-10-30T03:47:09.524Z,972.0
2017-10-30T03:48:11.172Z,972.0
2017-10-30T03:49:12.820Z,972.1
2017-10-30T03:50:14.494Z,972.1
2017-10-30T03:51:16.154Z,972.0
2017-10-30T03:52:17.813Z,972.1
2017-10-30T03:53:19.464Z,972.1
2017-10-30T03:54:21.131Z,972.1
2017-10-30T03:55:22.788Z,972.1
2017-10-30T03:56:24.450Z,972.1
2017-10-30T03:57:26.126Z,972.1
2017-10-30T03:58:27.771Z,972.2
2017-10-30T03:59:29.465Z,972.2
2017-10-30T04:00:31.132Z,972.3
2017-10-30T04:01:32.774Z,972.3
2017-10-30T04:02:34.431Z,972.3
2017-10-30T04:03:36.082Z,972.2
2017-10-30T04:04:37.762Z,972.2
2017-10-30T04:05:39.435Z,972.2
2017-10-30T04:06:41.082Z,972.2
2017-10-30T04:07:42.737Z,972.3
2017-10-30T04:08:44.394Z,972.3
2017-10-30T04:09:46.040Z,972.3
2017-10-30T04:10:47.684Z,972.4
2017-10-30T04:11:49.344Z,972.4
2017-10-30T04:12:51.006Z,972.4
2017-10-30T04:13:52.659Z,972.4
2017-10-30T04:14:54.307Z,972.4
2017-10-30T04:15:55.964Z,972.4
2017-10-30T04:16:57.625Z,972.4
2017-10-30T04:17:59.269Z,972.4
2017-10-30T04:19:00.927Z,972.4
2017-10-30T04:20:02.580Z,972.5
2017-10-30T04:21:04.242Z,972.5
2017-10-30T04:22:05.890Z,972.5
2017-10-30T04:23:07.542Z,972.4
2017-10-30T04:24:09.192Z,972.4
2017-10-30T04:25:10.841Z,972.4
2017-10-30T04:26:12.517Z,972.5
2017-10-30T04:27:14.170Z,972.5
2017-10-30T04:28:15.849Z,972.5
2017-10-30T04:29:17.496Z,972.5
2017-10-30T04:30:19.143Z,972.5
2017-10-30T04:31:20.812Z,972.5
2017-10-30T04:32:22.448Z,972.5
2017-10-30T04:33:24.109Z,972.5
2017-10-30T04:34:25.773Z,972.6
2017-10-30T04:35:27.422Z,972.6
2017-10-30T04:36:29.084Z,972.6
2017-10-30T04:37:30.911Z,972.6
2017-10-30T04:38:32.562Z,972.6
2017-10-30T04:39:34.224Z,972.6
2017-10-30T04:40:35.874Z,972.6
2017-10-30T04:41:37.529Z,972.6
2017-10-30T04:42:39.226Z,972.7
2017-10-30T04:43:40.868Z,972.7
2017-10-30T04:44:42.501Z,972.7
2017-10-30T04:45:44.154Z,972.7
2017-10-30T04:46:45.881Z,972.6
2017-10-30T04:47:47.524Z,972.7
2017-10-30T04:48:49.174Z,972.7
2017-10-30T04:49:50.830Z,972.6
2017-10-30T04:50:52.475Z,972.7
2017-10-30T04:51:54.134Z,972.7
2017-10-30T04:52:55.791Z,972.7
2017-10-30T04:53:57.433Z,972.7
2017-10-30T04:54:59.106Z,972.7
2017-10-30T04:56:00.756Z,972.7
2017-10-30T04:57:02.412Z,972.7
2017-10-30T04:58:04.061Z,972.7
2017-10-30T04:59:05.717Z,972.7
2017-10-30T05:00:07.374Z,972.7
2017-10-30T05:01:09.024Z,972.6
2017-10-30T05:02:10.679Z,972.8
2017-10-30T05:03:12.329Z,972.7
2017-10-30T05:04:13.973Z,972.6
2017-10-30T05:05:15.631Z,972.7
2017-10-30T05:06:17.280Z,972.7
2017-10-30T05:07:19.020Z,972.7
2017-10-30T05:08:20.667Z,972.7
2017-10-30T05:09:22.317Z,972.7
2017-10-30T05:10:24.010Z,972.8
2017-10-30T05:11:25.626Z,972.8
2017-10-30T05:12:27.278Z,972.8
2017-10-30T05:13:28.924Z,972.9
2017-10-30T05:14:30.601Z,972.8
2017-10-30T05:15:32.259Z,972.9
2017-10-30T05:16:33.911Z,972.8
2017-10-30T05:17:35.570Z,972.8
2017-10-30T05:18:37.224Z,972.8
2017-10-30T05:19:38.866Z,972.9
2017-10-30T05:20:40.512Z,972.9
2017-10-30T05:21:42.183Z,972.8
2017-10-30T05:22:43.832Z,972.9
2017-10-30T05:23:45.481Z,972.9
2017-10-30T05:24:47.140Z,972.9
2017-10-30T05:25:48.790Z,973.0
2017-10-30T05:26:50.445Z,973.0
2017-10-30T05:27:52.126Z,973.0
2017-10-30T05:28:53.773Z,973.0
2017-10-30T05:29:55.430Z,973.0
2017-10-30T05:30:57.084Z,973.1
2017-10-30T05:31:58.747Z,973.0
2017-10-30T05:33:00.536Z,973.1
2017-10-30T05:34:02.182Z,973.0
2017-10-30T05:35:03.834Z,972.9
2017-10-30T05:36:05.489Z,972.9
2017-10-30T05:37:07.139Z,972.9
2017-10-30T05:38:08.787Z,972.9
2017-10-30T05:39:10.447Z,972.9
2017-10-30T05:40:12.113Z,972.9
2017-10-30T05:41:13.752Z,973.0
2017-10-30T05:42:15.400Z,973.0
2017-10-30T05:43:17.053Z,973.0
2017-10-30T05:44:18.696Z,973.0
2017-10-30T05:45:20.345Z,973.0
2017-10-30T05:46:22.006Z,973.0
2017-10-30T05:47:23.652Z,973.1
2017-10-30T05:48:25.296Z,973.1
2017-10-30T05:49:26.957Z,973.1
2017-10-30T05:50:28.609Z,973.1
2017-10-30T05:51:30.286Z,973.1
2017-10-30T05:52:31.938Z,973.1
2017-10-30T05:53:33.579Z,973.2
2017-10-30T05:54:35.238Z,973.1
2017-10-30T05:55:36.892Z,973.1
2017-10-30T05:56:38.554Z,973.1
2017-10-30T05:57:40.202Z,973.1
2017-10-30T05:58:41.878Z,973.1
2017-10-30T05:59:43.538Z,973.1
2017-10-30T06:00:45.198Z,973.1
2017-10-30T06:01:46.857Z,973.1
2017-10-30T06:02:48.508Z,973.1
2017-10-30T06:03:50.167Z,973.2
2017-10-30T06:04:51.823Z,973.2
2017-10-30T06:05:53.478Z,973.2
2017-10-30T06:06:55.129Z,973.3
2017-10-30T06:07:56.785Z,973.2
2017-10-30T06:08:58.434Z,973.2
2017-10-30T06:10:00.097Z,973.2
2017-10-30T06:11:01.836Z,973.3
2017-10-30T06:12:03.504Z,973.3
2017-10-30T06:13:05.147Z,973.4
2017-10-30T06:14:06.800Z,973.4
2017-10-30T06:15:08.481Z,973.3
2017-10-30T06:16:10.136Z,973.4
2017-10-30T06:17:11.788Z,973.4
2017-10-30T06:18:13.457Z,973.4
2017-10-30T06:19:15.122Z,973.4
2017-10-30T06:20:16.780Z,973.4
2017-10-30T06:21:18.427Z,973.4
2017-10-30T06:22:20.091Z,973.4
2017-10-30T06:23:21.759Z,973.4
2017-10-30T06:24:23.419Z,973.4
2017-10-30T06:25:25.077Z,973.4
2017-10-30T06:26:26.741Z,973.4
2017-10-30T06:27:28.405Z,973.5
2017-10-30T06:28:30.062Z,973.5
2017-10-30T06:29:31.717Z,973.4
2017-10-30T06:30:33.381Z,973.5
2017-10-30T06:31:35.032Z,973.5
2017-10-30T06:32:36.683Z,973.5
2017-10-30T06:33:38.340Z,973.5
2017-10-30T06:34:39.991Z,973.5
2017-10-30T06:35:41.653Z,973.5
2017-10-30T06:36:43.324Z,973.5
2017-10-30T06:37:44.999Z,973.5
2017-10-30T06:38:46.666Z,973.5
2017-10-30T06:39:48.314Z,973.5
2017-10-30T06:40:49.965Z,973.5
2017-10-30T06:41:51.616Z,973.5
2017-10-30T06:42:53.275Z,973.5
2017-10-30T06:43:54.936Z,973.5
2017-10-30T06:44:56.594Z,973.6
2017-10-30T06:45:58.255Z,973.6
2017-10-30T06:46:59.915Z,973.6
2017-10-30T06:48:01.567Z,973.6
2017-10-30T06:49:03.217Z,973.7
2017-10-30T06:50:04.877Z,973.7
2017-10-30T06:51:06.566Z,973.7
2017-10-30T06:52:08.208Z,973.7
2017-10-30T06:53:09.858Z,973.7
2017-10-30T06:54:11.516Z,973.7
2017-10-30T06:55:13.184Z,973.8
2017-10-30T07:01:24.921Z,974.0
2017-10-30T07:02:26.570Z,973.9
2017-10-30T07:03:28.219Z,974.0
2017-10-30T07:04:29.875Z,974.0
2017-10-30T07:05:31.529Z,974.0
2017-10-30T07:06:33.186Z,974.0
2017-10-30T07:07:34.855Z,974.0
2017-10-30T07:08:36.505Z,974.0
2017-10-30T07:09:38.267Z,974.0
2017-10-30T07:10:39.911Z,974.1
2017-10-30T07:11:41.565Z,974.1
2017-10-30T07:12:43.226Z,974.1
2017-10-30T07:13:44.895Z,974.1
2017-10-30T07:14:46.555Z,974.2
2017-10-30T07:15:48.214Z,974.2
2017-10-30T07:16:49.860Z,974.2
2017-10-30T07:17:51.511Z,974.3
2017-10-30T07:18:53.164Z,974.2
2017-10-30T07:19:54.825Z,974.3
2017-10-30T07:20:56.507Z,974.3
2017-10-30T07:21:58.156Z,974.4
2017-10-30T07:22:59.815Z,974.4
2017-10-30T07:24:01.467Z,974.4
2017-10-30T07:25:03.153Z,974.4
2017-10-30T07:26:04.810Z,974.4
2017-10-30T07:27:06.479Z,974.4
2017-10-30T07:28:08.207Z,974.4
2017-10-30T07:29:09.863Z,974.4
2017-10-30T07:30:11.515Z,974.4
2017-10-30T07:31:13.175Z,974.4
2017-10-30T07:32:14.841Z,974.4
2017-10-30T07:33:16.491Z,974.4
2017-10-30T07:34:18.149Z,974.5
2017-10-30T07:35:20.829Z,974.5
2017-10-30T07:36:22.489Z,974.5
2017-10-30T07:37:24.145Z,974.5
2017-10-30T07:38:25.824Z,974.5
2017-10-30T07:39:27.477Z,974.5
2017-10-30T07:40:29.137Z,974.6
2017-10-30T07:41:30.881Z,974.6
2017-10-30T07:42:32.533Z,974.7
2017-10-30T07:43:34.296Z,974.7
2017-10-30T07:44:36.045Z,974.7
2017-10-30T07:45:37.687Z,974.7
2017-10-30T07:46:39.457Z,974.7
2017-10-30T07:47:41.141Z,974.7
2017-10-30T07:48:42.921Z,974.7
2017-10-30T07:49:44.586Z,974.7
2017-10-30T07:50:46.346Z,974.7
2017-10-30T07:51:48.028Z,974.7
2017-10-30T07:52:49.736Z,974.7
2017-10-30T07:53:51.426Z,974.7
2017-10-30T07:54:53.076Z,974.8
2017-10-30T07:55:54.735Z,974.8
2017-10-30T07:56:56.388Z,974.8
2017-10-30T07:57:58.048Z,974.8
2017-10-30T07:58:59.900Z,974.8
2017-10-30T08:00:01.574Z,974.8
2017-10-30T08:01:03.276Z,974.8
2017-10-30T08:02:04.942Z,974.8
2017-10-30T08:03:06.597Z,974.8
2017-10-30T08:04:08.251Z,974.8
2017-10-30T08:05:09.922Z,974.8
2017-10-30T08:06:11.581Z,974.8
2017-10-30T08:07:13.245Z,974.8
2017-10-30T08:08:14.896Z,974.8
2017-10-30T08:09:16.552Z,974.9
2017-10-30T08:10:18.375Z,974.9
2017-10-30T08:11:20.047Z,974.9
2017-10-30T08:12:21.732Z,975.0
2017-10-30T08:13:23.400Z,974.9
2017-10-30T08:14:25.058Z,974.9
2017-10-30T08:15:26.716Z,975.0
2017-10-30T08:16:28.381Z,975.0
2017-10-30T08:17:30.037Z,975.0
2017-10-30T08:18:31.718Z,975.0
2017-10-30T08:19:33.409Z,975.1
2017-10-30T08:20:35.063Z,975.1
2017-10-30T08:21:36.741Z,975.1
2017-10-30T08:22:38.404Z,975.1
2017-10-30T08:23:41.481Z,975.2
2017-10-30T08:24:43.144Z,975.2
2017-10-30T08:25:46.965Z,975.2
2017-10-30T08:26:49.353Z,975.2
2017-10-30T08:27:51.037Z,975.2
2017-10-30T08:28:52.705Z,975.2
2017-10-30T08:29:54.377Z,975.3
2017-10-30T08:30:56.109Z,975.3
2017-10-30T08:31:57.751Z,975.2
2017-10-30T08:32:59.474Z,975.2
2017-10-30T08:34:01.144Z,975.2
2017-10-30T08:35:02.803Z,975.2
2017-10-30T08:36:04.464Z,975.2
2017-10-30T08:37:06.185Z,975.2
2017-10-30T08:38:07.883Z,975.2
2017-10-30T08:39:09.564Z,975.2
2017-10-30T08:40:11.226Z,975.3
2017-10-30T08:41:12.895Z,975.3
2017-10-30T08:42:14.561Z,975.4
2017-10-30T08:43:16.219Z,975.4
2017-10-30T08:44:17.896Z,975.5
2017-10-30T08:45:19.620Z,975.4
2017-10-30T08:46:21.281Z,975.4
2017-10-30T08:47:22.956Z,975.4
2017-10-30T08:48:24.612Z,975.4
2017-10-30T08:49:26.279Z,975.4
2017-10-30T08:50:27.947Z,975.4
2017-10-30T08:51:29.607Z,975.4
2017-10-30T08:52:31.274Z,975.4
2017-10-30T08:53:32.940Z,975.5
2017-10-30T08:54:34.607Z,975.5
2017-10-30T08:55:36.381Z,975.5
2017-10-30T08:56:38.028Z,975.4
2017-10-30T08:57:39.687Z,975.5
2017-10-30T08:58:41.823Z,975.5
2017-10-30T08:59:43.489Z,975.5
2017-10-30T09:00:45.173Z,975.4
2017-10-30T09:01:46.823Z,975.5
2017-10-30T09:02:48.497Z,975.4
2017-10-30T09:03:50.188Z,975.5
2017-10-30T09:04:51.871Z,975.6
2017-10-30T09:05:53.525Z,975.5
2017-10-30T09:06:55.199Z,975.6
2017-10-30T09:07:56.855Z,975.7
2017-10-30T09:08:58.518Z,975.6
2017-10-30T09:10:00.178Z,975.5
2017-10-30T09:11:01.844Z,975.5
2017-10-30T09:12:03.512Z,975.5
2017-10-30T09:13:05.170Z,975.5
2017-10-30T09:14:06.832Z,975.4
2017-10-30T09:15:08.490Z,975.4
2017-10-30T09:16:10.167Z,975.5
2017-10-30T09:17:11.836Z,975.6
2017-10-30T09:18:13.507Z,975.5
2017-10-30T09:19:15.177Z,975.5
2017-10-30T09:20:16.903Z,975.5
2017-10-30T09:21:18.582Z,975.6
2017-10-30T09:22:20.255Z,975.7
2017-10-30T09:23:21.922Z,975.6
2017-10-30T09:24:23.680Z,975.6
2017-10-30T09:25:25.367Z,975.7
2017-10-30T09:26:27.003Z,975.7
2017-10-30T09:27:28.667Z,975.6
2017-10-30T09:28:30.330Z,975.7
2017-10-30T09:29:31.997Z,975.6
2017-10-30T09:30:33.657Z,975.7
2017-10-30T09:31:35.318Z,975.7
2017-10-30T09:32:37.100Z,975.7
2017-10-30T09:33:38.761Z,975.7
2017-10-30T09:34:40.437Z,975.7
2017-10-30T09:35:42.102Z,975.7
2017-10-30T09:36:43.761Z,975.7
2017-10-30T09:37:45.437Z,975.7
2017-10-30T09:38:47.103Z,975.8
2017-10-30T09:39:48.768Z,975.9
2017-10-30T09:40:50.464Z,975.7
2017-10-30T09:41:52.115Z,975.8
2017-10-30T09:42:53.778Z,975.8
2017-10-30T09:43:55.454Z,975.7
2017-10-30T09:44:57.178Z,975.8
2017-10-30T09:45:58.846Z,975.8
2017-10-30T09:47:00.530Z,975.8
2017-10-30T09:48:02.259Z,975.9
2017-10-30T09:49:03.937Z,975.9
2017-10-30T09:50:05.729Z,975.9
2017-10-30T09:51:07.402Z,975.9
2017-10-30T09:52:09.078Z,976.0
2017-10-30T09:53:10.755Z,976.0
2017-10-30T09:54:12.506Z,976.0
2017-10-30T09:55:14.166Z,975.9
2017-10-30T09:56:15.828Z,975.9
2017-10-30T09:57:17.536Z,976.0
2017-10-30T09:58:19.191Z,976.1
2017-10-30T09:59:20.937Z,976.0
2017-10-30T10:00:22.607Z,975.9
2017-10-30T10:01:24.268Z,975.9
2017-10-30T10:02:25.933Z,976.0
2017-10-30T10:03:27.592Z,975.9
2017-10-30T10:04:29.256Z,975.9
2017-10-30T10:05:30.913Z,976.0
2017-10-30T10:06:32.625Z,976.0
2017-10-30T10:07:34.290Z,976.0
2017-10-30T10:08:35.962Z,976.0
2017-10-30T10:09:37.636Z,976.0
2017-10-30T10:10:39.357Z,976.0
2017-10-30T10:11:41.105Z,976.0
2017-10-30T10:12:42.790Z,976.0
2017-10-30T10:13:44.453Z,976.0
2017-10-30T10:14:46.112Z,976.0
2017-10-30T10:15:47.771Z,976.0
2017-10-30T10:16:49.443Z,976.0
2017-10-30T10:17:51.107Z,976.0
2017-10-30T10:18:52.766Z,976.0
2017-10-30T10:19:54.429Z,976.0
2017-10-30T10:20:56.104Z,976.0
2017-10-30T10:21:57.783Z,976.0
2017-10-30T10:22:59.466Z,976.1
2017-10-30T10:24:01.103Z,976.1
2017-10-30T10:25:02.786Z,976.1
2017-10-30T10:26:04.448Z,976.1
2017-10-30T10:27:06.106Z,976.1
2017-10-30T10:28:07.810Z,976.1
2017-10-30T10:29:09.713Z,976.2
2017-10-30T10:30:11.387Z,976.2
2017-10-30T10:31:13.046Z,976.1
2017-10-30T10:32:14.713Z,976.2
2017-10-30T10:33:16.385Z,976.2
2017-10-30T10:34:18.140Z,976.2
2017-10-30T10:35:19.885Z,976.1
2017-10-30T10:36:21.549Z,976.2
2017-10-30T10:37:23.231Z,976.1
2017-10-30T10:38:25.475Z,976.1
2017-10-30T10:39:27.152Z,976.1
2017-10-30T10:40:28.812Z,976.1
2017-10-30T10:41:30.481Z,976.1
2017-10-30T10:42:32.909Z,976.1
2017-10-30T10:43:34.588Z,976.1
2017-10-30T10:44:36.249Z,976.1
2017-10-30T10:45:38.194Z,976.1
2017-10-30T10:46:39.847Z,976.2
2017-10-30T10:47:41.696Z,976.2
2017-10-30T10:48:43.368Z,976.1
2017-10-30T10:49:45.045Z,976.1
2017-10-30T10:50:46.718Z,976.0
2017-10-30T10:51:48.391Z,976.0
2017-10-30T10:52:50.049Z,976.0
2017-10-30T10:53:51.720Z,976.1
2017-10-30T10:54:53.514Z,976.1
2017-10-30T11:01:09.274Z,976.2
2017-10-30T11:02:10.934Z,976.2
2017-10-30T11:04:04.234Z,976.2
2017-10-30T11:05:05.892Z,976.2
2017-10-30T11:06:08.200Z,976.2
2017-10-30T11:07:09.868Z,976.2
2017-10-30T11:08:11.533Z,976.3
2017-10-30T11:09:13.193Z,976.2
2017-10-30T11:10:14.865Z,976.1
2017-10-30T11:11:16.986Z,976.2
2017-10-30T11:12:18.654Z,976.2
2017-10-30T11:13:20.331Z,976.3
2017-10-30T11:14:22.000Z,976.2
2017-10-30T11:15:23.671Z,976.2
2017-10-30T11:16:25.705Z,976.2
2017-10-30T11:17:27.366Z,976.3
2017-10-30T11:18:29.031Z,976.2
2017-10-30T11:19:30.699Z,976.2
2017-10-30T11:20:32.353Z,976.2
2017-10-30T11:21:34.010Z,976.2
2017-10-30T11:22:35.787Z,976.3
2017-10-30T11:23:37.455Z,976.2
2017-10-30T11:24:39.449Z,976.2
2017-10-30T11:25:41.119Z,976.3
2017-10-30T11:26:43.045Z,976.3
2017-10-30T11:27:44.711Z,976.2
2017-10-30T11:28:46.376Z,976.3
2017-10-30T11:29:48.034Z,976.2
2017-10-30T11:30:50.138Z,976.2
2017-10-30T11:31:51.813Z,976.3
2017-10-30T11:32:53.493Z,976.2
2017-10-30T11:33:55.176Z,976.2
2017-10-30T11:34:56.848Z,976.2
2017-10-30T11:35:58.522Z,976.3
2017-10-30T11:37:00.261Z,976.3
2017-10-30T11:38:05.218Z,976.3
2017-10-30T11:39:11.838Z,976.3
2017-10-30T11:40:19.514Z,976.2
2017-10-30T11:41:25.339Z,976.3
2017-10-30T11:42:31.778Z,976.3
2017-10-30T11:43:37.275Z,976.4
2017-10-30T11:44:44.414Z,976.4
2017-10-30T11:45:50.854Z,976.4
2017-10-30T11:46:57.764Z,976.4
2017-10-30T11:48:04.351Z,976.4
2017-10-30T11:49:10.385Z,976.3
2017-10-30T11:50:15.220Z,976.3
2017-10-30T11:51:20.454Z,976.2
2017-10-30T11:52:26.500Z,976.3
2017-10-30T11:53:30.515Z,976.2
2017-10-30T11:54:34.886Z,976.3
2017-10-30T11:55:36.476Z,976.2
2017-10-30T11:56:43.057Z,976.2
2017-10-30T11:57:49.492Z,976.2
2017-10-30T11:58:54.828Z,976.3
2017-10-30T11:59:56.432Z,976.2
2017-10-30T12:00:58.155Z,976.3
2017-10-30T12:02:00.631Z,976.4
2017-10-30T12:03:03.053Z,976.4
2017-10-30T12:04:05.069Z,976.5
2017-10-30T12:05:08.036Z,976.4
2017-10-30T12:06:10.873Z,976.5
2017-10-30T12:07:14.475Z,976.5
2017-10-30T12:08:17.164Z,976.4
2017-10-30T12:09:19.793Z,976.5
2017-10-30T12:10:21.767Z,976.4
2017-10-30T12:11:24.302Z,976.5
2017-10-30T12:12:26.368Z,976.5
2017-10-30T12:13:29.105Z,976.5
2017-10-30T12:14:31.425Z,976.5
2017-10-30T12:15:34.219Z,976.5
2017-10-30T12:16:38.300Z,976.4
2017-10-30T12:17:40.968Z,976.3
2017-10-30T12:18:43.610Z,976.3
2017-10-30T12:19:46.647Z,976.3
2017-10-30T12:20:49.502Z,976.3
2017-10-30T12:21:51.429Z,976.3
2017-10-30T12:22:53.805Z,976.3
2017-10-30T12:23:59.053Z,976.4
2017-10-30T12:25:01.805Z,976.3
2017-10-30T12:26:04.810Z,976.3
2017-10-30T12:27:09.633Z,976.4
2017-10-30T12:28:12.907Z,976.4
2017-10-30T12:29:25.573Z,976.4
2017-10-30T12:30:27.474Z,976.4
2017-10-30T12:31:30.038Z,976.4
2017-10-30T12:32:34.966Z,976.4
2017-10-30T12:33:36.970Z,976.5
2017-10-30T12:34:39.180Z,976.5
2017-10-30T12:35:42.005Z,976.5
2017-10-30T12:36:43.865Z,976.5
2017-10-30T12:37:46.991Z,976.5
2017-10-30T12:38:50.027Z,976.6
2017-10-30T12:39:53.472Z,976.6
2017-10-30T12:40:55.303Z,976.6
2017-10-30T12:41:57.436Z,976.6
2017-10-30T12:43:01.153Z,976.5
2017-10-30T12:44:04.303Z,976.5
2017-10-30T12:45:06.181Z,976.6
2017-10-30T12:46:08.164Z,976.6
2017-10-30T12:47:10.921Z,976.6
2017-10-30T12:48:12.735Z,976.6
2017-10-30T12:49:14.501Z,976.5
2017-10-30T12:50:16.346Z,976.6
2017-10-30T12:51:18.140Z,976.5
2017-10-30T12:52:19.882Z,976.5
2017-10-30T12:53:21.652Z,976.5
2017-10-30T12:54:23.413Z,976.5
2017-10-30T12:55:25.127Z,976.6
2017-10-30T12:56:26.921Z,976.6
2017-10-30T12:57:28.780Z,976.6
2017-10-30T12:58:30.509Z,976.5
2017-10-30T12:59:32.258Z,976.5
2017-10-30T13:00:34.022Z,976.5
2017-10-30T13:01:35.792Z,976.5
2017-10-30T13:02:37.555Z,976.5
2017-10-30T13:03:39.398Z,976.4
2017-10-30T13:04:41.189Z,976.4
2017-10-30T13:05:42.925Z,976.4
2017-10-30T13:06:44.712Z,976.4
2017-10-30T13:07:46.417Z,976.5
2017-10-30T13:08:48.079Z,976.5
2017-10-30T13:09:49.749Z,976.6
2017-10-30T13:10:52.080Z,976.6
2017-10-30T13:11:53.768Z,976.6
2017-10-30T13:12:55.472Z,976.6
2017-10-30T13:13:57.142Z,976.7
2017-10-30T13:14:58.819Z,976.7
2017-10-30T13:16:00.516Z,976.8
2017-10-30T13:17:02.339Z,976.7
2017-10-30T13:18:04.004Z,976.7
2017-10-30T13:19:06.015Z,976.8
2017-10-30T13:20:09.292Z,976.7
2017-10-30T13:21:10.911Z,976.8
2017-10-30T13:22:24.099Z,976.7
2017-10-30T13:23:25.760Z,976.8
2017-10-30T13:24:27.454Z,976.7
2017-10-30T13:25:29.113Z,976.7
2017-10-30T13:26:30.797Z,976.7
2017-10-30T13:27:32.501Z,976.7
2017-10-30T13:28:34.219Z,976.8
2017-10-30T13:29:35.901Z,976.7
2017-10-30T13:30:37.588Z,976.7
2017-10-30T13:31:39.248Z,976.7
2017-10-30T13:32:41.025Z,976.7
2017-10-30T13:33:42.714Z,976.6